createdAt,value
2018-03-28T00:02:02.398Z,93.90
2018-03-28T00:04:30.721Z,94.40
2018-03-28T00:06:58.237Z,94.10
2018-03-28T00:09:26.534Z,94.50
2018-03-28T00:11:54.088Z,94.50
2018-03-28T00:14:21.606Z,94.30
2018-03-28T00:16:49.142Z,94.50
2018-03-28T00:19:16.697Z,94.80
2018-03-28T00:21:44.228Z,95.10
2018-03-28T00:24:11.757Z,95.10
2018-03-28T00:26:39.313Z,95.00
2018-03-28T00:29:06.848Z,95.20
2018-03-28T00:31:34.376Z,95.00
2018-03-28T00:34:01.916Z,94.80
2018-03-28T00:36:30.222Z,94.80
2018-03-28T00:38:57.735Z,94.80
2018-03-28T00:41:26.051Z,94.80
2018-03-28T00:43:53.582Z,94.70
2018-03-28T00:46:21.869Z,94.20
2018-03-28T00:48:49.416Z,94.20
2018-03-28T00:51:29.773Z,93.70
2018-03-28T00:53:58.088Z,93.60
2018-03-28T00:56:25.852Z,93.60
2018-03-28T00:58:53.382Z,93.50
2018-03-28T01:01:20.952Z,93.70
2018-03-28T01:03:48.471Z,93.40
2018-03-28T01:06:16.966Z,93.30
2018-03-28T01:08:45.290Z,93.30
2018-03-28T01:11:12.814Z,93.30
2018-03-28T01:13:41.108Z,93.60
2018-03-28T01:16:08.674Z,93.60
2018-03-28T01:18:36.192Z,93.60
2018-03-28T01:21:03.722Z,93.30
2018-03-28T01:23:31.278Z,93.20
2018-03-28T01:25:58.812Z,93.10
2018-03-28T01:28:26.332Z,93.10
2018-03-28T01:30:54.649Z,93.70
2018-03-28T01:33:22.184Z,93.70
2018-03-28T01:35:50.467Z,94.00
2018-03-28T01:38:18.038Z,94.00
2018-03-28T01:40:45.552Z,94.40
2018-03-28T01:43:13.094Z,94.00
2018-03-28T01:45:40.638Z,94.10
2018-03-28T01:48:08.160Z,94.00
2018-03-28T01:50:35.687Z,93.50
2018-03-28T01:53:03.244Z,93.70
2018-03-28T01:55:30.766Z,93.90
2018-03-28T01:57:58.314Z,94.20
2018-03-28T02:00:25.879Z,94.70
2018-03-28T02:02:53.403Z,94.90
2018-03-28T02:05:21.741Z,95.50
2018-03-28T02:07:49.278Z,95.50
2018-03-28T02:10:16.801Z,95.80
2018-03-28T02:12:45.101Z,96.30
2018-03-28T02:15:12.671Z,96.30
2018-03-28T02:17:40.240Z,96.50
2018-03-28T02:20:07.736Z,96.70
2018-03-28T02:22:36.054Z,97.00
2018-03-28T02:25:03.580Z,97.00
2018-03-28T02:27:31.862Z,97.30
2018-03-28T02:30:00.162Z,97.20
2018-03-28T02:32:27.708Z,97.20
2018-03-28T02:34:55.228Z,97.20
2018-03-28T02:37:22.763Z,97.20
2018-03-28T02:39:50.299Z,97.10
2018-03-28T02:42:17.822Z,97.10
2018-03-28T02:44:46.140Z,97.30
2018-03-28T02:47:13.653Z,97.30
2018-03-28T02:49:41.955Z,97.70
2018-03-28T02:52:09.506Z,97.40
2018-03-28T02:54:37.805Z,97.50
2018-03-28T02:57:05.349Z,97.40
2018-03-28T02:59:33.658Z,97.40
2018-03-28T03:02:01.194Z,97.40
2018-03-28T03:04:28.736Z,97.40
2018-03-28T03:06:56.297Z,97.40
2018-03-28T03:09:24.615Z,97.30
2018-03-28T03:11:52.165Z,97.30
2018-03-28T03:14:19.684Z,97.30
2018-03-28T03:16:47.998Z,97.10
2018-03-28T03:19:15.579Z,97.10
2018-03-28T03:21:43.114Z,96.90
2018-03-28T03:24:10.642Z,96.70
2018-03-28T03:26:38.942Z,96.50
2018-03-28T03:29:06.497Z,96.50
2018-03-28T03:31:34.022Z,96.20
2018-03-28T03:34:01.561Z,95.90
2018-03-28T03:36:29.097Z,95.80
2018-03-28T03:38:56.637Z,95.70
2018-03-28T03:41:24.168Z,95.60
2018-03-28T03:43:52.476Z,95.60
2018-03-28T03:46:20.003Z,95.60
2018-03-28T03:48:48.309Z,95.30
2018-03-28T03:51:15.862Z,95.30
2018-03-28T03:53:44.143Z,95.20
2018-03-28T03:56:11.694Z,94.90
2018-03-28T03:58:39.201Z,94.70
2018-03-28T04:01:06.728Z,94.70
2018-03-28T04:03:34.264Z,94.50
2018-03-28T04:06:02.579Z,94.40
2018-03-28T04:08:30.108Z,94.40
2018-03-28T04:10:57.649Z,94.50
2018-03-28T04:13:25.938Z,94.40
2018-03-28T04:15:53.454Z,94.40
2018-03-28T04:18:20.997Z,94.60
2018-03-28T04:20:48.509Z,94.90
2018-03-28T04:23:16.814Z,95.20
2018-03-28T04:25:44.341Z,95.20
2018-03-28T04:28:12.638Z,95.20
2018-03-28T04:30:40.176Z,95.10
2018-03-28T04:33:08.497Z,95.30
2018-03-28T04:35:36.016Z,95.30
2018-03-28T04:38:04.323Z,95.00
2018-03-28T04:40:31.836Z,95.00
2018-03-28T04:42:59.372Z,95.00
2018-03-28T04:45:26.917Z,94.40
2018-03-28T04:47:54.464Z,94.10
2018-03-28T04:50:21.997Z,94.10
2018-03-28T04:52:49.534Z,94.10
2018-03-28T04:55:17.850Z,94.00
2018-03-28T04:57:45.379Z,94.00
2018-03-28T05:00:13.701Z,94.10
2018-03-28T05:02:41.228Z,94.10
2018-03-28T05:05:09.628Z,94.30
2018-03-28T05:07:37.170Z,94.40
2018-03-28T05:10:04.705Z,94.10
2018-03-28T05:12:33.003Z,94.20
2018-03-28T05:15:00.524Z,94.20
2018-03-28T05:17:28.052Z,94.40
2018-03-28T05:19:55.596Z,94.20
2018-03-28T05:22:23.139Z,94.30
2018-03-28T05:24:50.672Z,94.70
2018-03-28T05:27:18.200Z,94.50
2018-03-28T05:29:45.713Z,94.50
2018-03-28T05:32:13.264Z,94.70
2018-03-28T05:34:41.558Z,95.00
2018-03-28T05:37:09.094Z,95.00
2018-03-28T05:39:37.396Z,95.20
2018-03-28T05:42:04.910Z,95.20
2018-03-28T05:44:32.463Z,95.00
2018-03-28T05:46:59.981Z,95.00
2018-03-28T05:49:27.534Z,95.10
2018-03-28T05:51:55.059Z,95.30
2018-03-28T05:54:23.391Z,95.30
2018-03-28T05:56:50.923Z,95.30
2018-03-28T05:59:18.459Z,95.30
2018-03-28T06:01:46.776Z,95.30
2018-03-28T06:04:14.366Z,95.30
2018-03-28T06:06:41.889Z,95.00
2018-03-28T06:09:10.345Z,95.00
2018-03-28T06:11:38.642Z,94.70
2018-03-28T06:14:06.180Z,94.70
2018-03-28T06:16:34.501Z,94.20
2018-03-28T06:19:02.026Z,94.50
2018-03-28T06:21:29.585Z,94.20
2018-03-28T06:23:57.330Z,93.90
2018-03-28T06:26:25.617Z,93.50
2018-03-28T06:28:53.924Z,93.40
2018-03-28T06:31:21.476Z,93.40
2018-03-28T06:33:49.033Z,93.60
2018-03-28T06:36:16.592Z,93.90
2018-03-28T06:38:44.126Z,94.20
2018-03-28T06:41:12.409Z,94.70
2018-03-28T06:43:40.712Z,94.90
2018-03-28T06:46:08.248Z,94.90
2018-03-28T06:48:36.524Z,94.50
2018-03-28T06:51:04.061Z,94.50
2018-03-28T06:53:32.415Z,94.30
2018-03-28T06:55:59.927Z,94.30
2018-03-28T06:58:27.460Z,93.50
2018-03-28T07:00:55.762Z,93.30
2018-03-28T07:03:23.290Z,93.30
2018-03-28T07:05:50.838Z,93.70
2018-03-28T07:08:18.352Z,93.50
2018-03-28T07:10:45.872Z,92.80
2018-03-28T07:13:14.174Z,93.20
2018-03-28T07:15:41.693Z,93.20
2018-03-28T07:18:09.240Z,92.80
2018-03-28T07:20:36.772Z,92.80
2018-03-28T07:23:04.315Z,93.10
2018-03-28T07:25:31.841Z,93.10
2018-03-28T07:28:00.165Z,92.70
2018-03-28T07:30:27.732Z,92.90
2018-03-28T07:32:55.281Z,92.00
2018-03-28T07:35:22.795Z,92.60
2018-03-28T07:37:51.087Z,93.10
2018-03-28T07:40:18.653Z,93.10
2018-03-28T07:42:46.189Z,92.60
2018-03-28T07:45:14.513Z,92.30
2018-03-28T07:47:42.055Z,92.30
2018-03-28T07:50:09.604Z,92.70
2018-03-28T07:52:37.138Z,92.90
2018-03-28T07:55:05.493Z,92.00
2018-03-28T07:57:33.039Z,92.20
2018-03-28T08:00:00.571Z,91.50
2018-03-28T08:02:28.117Z,90.20
2018-03-28T08:04:55.639Z,90.90
2018-03-28T08:07:23.174Z,91.00
2018-03-28T08:09:50.712Z,90.30
2018-03-28T08:12:18.261Z,90.50
2018-03-28T08:14:45.806Z,90.50
2018-03-28T08:17:13.347Z,90.20
2018-03-28T08:19:40.870Z,90.20
2018-03-28T08:22:08.411Z,90.50
2018-03-28T08:24:36.720Z,90.30
2018-03-28T08:27:04.247Z,90.30
2018-03-28T08:29:31.801Z,91.30
2018-03-28T08:31:59.340Z,90.90
2018-03-28T08:34:26.875Z,90.40
2018-03-28T08:36:54.412Z,90.30
2018-03-28T08:39:21.950Z,90.30
2018-03-28T08:41:49.514Z,90.10
2018-03-28T08:44:17.072Z,91.20
2018-03-28T08:46:44.615Z,90.50
2018-03-28T08:49:12.147Z,88.40
2018-03-28T08:51:40.466Z,86.20
2018-03-28T08:54:08.021Z,86.20
2018-03-28T08:56:35.558Z,87.30
2018-03-28T08:59:03.096Z,87.00
2018-03-28T09:01:30.640Z,85.80
2018-03-28T09:03:58.180Z,85.00
2018-03-28T09:06:25.758Z,84.60
2018-03-28T09:08:53.295Z,83.30
2018-03-28T09:11:20.822Z,83.20
2018-03-28T09:13:48.356Z,83.60
2018-03-28T09:16:16.648Z,83.40
2018-03-28T09:18:44.225Z,83.40
2018-03-28T09:21:11.781Z,82.90
2018-03-28T09:23:39.340Z,85.00
2018-03-28T09:26:06.944Z,84.10
2018-03-28T09:28:34.439Z,84.50
2018-03-28T09:31:02.751Z,83.30
2018-03-28T09:33:30.301Z,83.30
2018-03-28T09:35:57.838Z,80.20
2018-03-28T09:38:25.380Z,79.90
2018-03-28T09:40:52.925Z,79.90
2018-03-28T09:43:20.470Z,79.40
2018-03-28T09:45:48.012Z,78.50
2018-03-28T09:48:15.538Z,78.90
2018-03-28T09:50:43.081Z,78.70
2018-03-28T09:53:10.631Z,76.70
2018-03-28T09:55:38.197Z,78.20
2018-03-28T09:58:06.489Z,78.90
2018-03-28T10:00:34.015Z,78.80
2018-03-28T10:03:07.186Z,78.30
2018-03-28T10:05:38.616Z,77.20
2018-03-28T10:08:06.164Z,76.90
2018-03-28T10:10:33.682Z,77.60
2018-03-28T10:13:01.218Z,77.20
2018-03-28T10:15:28.759Z,76.20
2018-03-28T10:17:56.320Z,75.70
2018-03-28T10:20:23.845Z,75.30
2018-03-28T10:22:51.395Z,76.90
2018-03-28T10:25:19.715Z,76.70
2018-03-28T10:27:47.247Z,76.70
2018-03-28T10:30:14.811Z,76.60
2018-03-28T10:32:42.347Z,76.70
2018-03-28T10:35:10.686Z,76.50
2018-03-28T10:37:38.204Z,76.30
2018-03-28T10:40:05.773Z,76.30
2018-03-28T10:42:33.320Z,77.50
2018-03-28T10:45:00.903Z,76.60
2018-03-28T10:47:28.451Z,77.00
2018-03-28T10:49:55.979Z,75.60
2018-03-28T10:52:24.301Z,75.20
2018-03-28T10:54:51.846Z,75.20
2018-03-28T10:57:19.417Z,75.10
2018-03-28T10:59:46.934Z,74.00
2018-03-28T11:02:15.251Z,74.90
2018-03-28T11:04:42.790Z,74.90
2018-03-28T11:07:10.345Z,75.30
2018-03-28T11:09:37.900Z,75.20
2018-03-28T11:12:05.461Z,73.90
2018-03-28T11:14:33.007Z,75.10
2018-03-28T11:17:01.290Z,75.30
2018-03-28T11:19:29.592Z,75.50
2018-03-28T11:21:57.114Z,75.50
2018-03-28T11:24:25.420Z,76.50
2018-03-28T11:26:53.038Z,76.50
2018-03-28T11:29:20.580Z,75.10
2018-03-28T11:31:48.099Z,76.70
2018-03-28T11:34:15.650Z,75.40
2018-03-28T11:36:43.170Z,75.30
2018-03-28T11:39:10.726Z,75.30
2018-03-28T11:41:39.066Z,75.60
2018-03-28T11:44:06.584Z,75.60
2018-03-28T11:46:34.900Z,74.80
2018-03-28T11:49:02.420Z,74.80
2018-03-28T11:51:30.721Z,73.50
2018-03-28T11:53:58.248Z,73.60
2018-03-28T11:56:26.556Z,75.60
2018-03-28T11:58:54.077Z,74.90
2018-03-28T12:01:21.628Z,74.40
2018-03-28T12:03:49.207Z,73.40
2018-03-28T12:06:17.536Z,72.90
2018-03-28T12:08:45.063Z,72.90
2018-03-28T12:11:12.629Z,73.50
2018-03-28T12:13:40.262Z,73.40
2018-03-28T12:16:08.586Z,72.90
2018-03-28T12:18:36.108Z,72.90
2018-03-28T12:21:05.255Z,74.00
2018-03-28T12:23:32.806Z,74.00
2018-03-28T12:26:00.339Z,74.40
2018-03-28T12:28:27.873Z,72.90
2018-03-28T12:30:56.166Z,72.10
2018-03-28T12:33:23.720Z,72.10
2018-03-28T12:35:52.010Z,72.90
2018-03-28T12:38:19.533Z,73.50
2018-03-28T12:40:47.090Z,72.00
2018-03-28T12:43:14.631Z,72.60
2018-03-28T12:45:42.174Z,73.00
2018-03-28T12:48:09.710Z,72.60
2018-03-28T12:50:37.312Z,71.60
2018-03-28T12:53:04.847Z,71.60
2018-03-28T12:55:32.378Z,71.50
2018-03-28T12:57:59.917Z,72.00
2018-03-28T13:00:28.233Z,71.90
2018-03-28T13:02:55.784Z,71.90
2018-03-28T13:05:23.369Z,72.40
2018-03-28T13:07:51.737Z,73.20
2018-03-28T13:10:19.998Z,72.80
2018-03-28T13:12:47.542Z,72.80
2018-03-28T13:15:15.845Z,73.60
2018-03-28T13:17:43.357Z,73.60
2018-03-28T13:20:11.146Z,73.40
2018-03-28T13:22:38.681Z,74.40
2018-03-28T13:25:06.217Z,73.10
2018-03-28T13:27:33.752Z,72.20
2018-03-28T13:30:01.302Z,71.70
2018-03-28T13:32:28.815Z,72.30
2018-03-28T13:34:56.350Z,73.00
2018-03-28T13:37:23.888Z,73.70
2018-03-28T13:39:51.446Z,73.80
2018-03-28T13:42:18.972Z,73.30
2018-03-28T13:44:47.258Z,74.40
2018-03-28T13:47:14.815Z,74.40
2018-03-28T13:49:42.343Z,73.90
2018-03-28T13:52:09.885Z,73.70
2018-03-28T13:54:37.450Z,73.10
2018-03-28T13:57:04.996Z,72.70
2018-03-28T13:59:32.516Z,72.20
2018-03-28T14:02:00.075Z,72.10
2018-03-28T14:04:27.609Z,72.80
2018-03-28T14:06:55.917Z,72.90
2018-03-28T14:09:23.480Z,72.90
2018-03-28T14:11:51.019Z,72.30
2018-03-28T14:14:18.566Z,72.30
2018-03-28T14:16:46.883Z,71.00
2018-03-28T14:19:14.416Z,71.10
2018-03-28T14:21:42.003Z,71.40
2018-03-28T14:24:10.269Z,71.00
2018-03-28T14:26:37.804Z,71.00
2018-03-28T14:29:06.126Z,71.00
2018-03-28T14:31:33.656Z,71.50
2018-03-28T14:34:01.175Z,71.20
2018-03-28T14:36:28.710Z,71.40
2018-03-28T14:38:56.230Z,72.30
2018-03-28T14:41:24.645Z,72.00
2018-03-28T14:43:52.172Z,72.10
2018-03-28T14:46:19.724Z,71.90
2018-03-28T14:48:47.252Z,72.30
2018-03-28T14:51:14.809Z,72.20
2018-03-28T14:53:42.328Z,72.90
2018-03-28T14:56:09.848Z,73.00
2018-03-28T14:58:38.165Z,74.60
2018-03-28T15:01:05.714Z,74.50
2018-03-28T15:03:33.266Z,73.80
2018-03-28T15:06:00.799Z,75.10
2018-03-28T15:08:29.117Z,74.90
2018-03-28T15:10:56.675Z,74.80
2018-03-28T15:13:24.255Z,75.60
2018-03-28T15:15:51.976Z,76.40
2018-03-28T15:18:19.522Z,76.30
2018-03-28T15:20:47.826Z,77.50
2018-03-28T15:23:15.364Z,77.40
2018-03-28T15:25:42.919Z,79.90
2018-03-28T15:28:11.206Z,80.30
2018-03-28T15:30:38.769Z,80.30
2018-03-28T15:33:06.338Z,81.50
2018-03-28T15:35:33.886Z,81.30
2018-03-28T15:38:01.430Z,82.80
2018-03-28T15:40:29.756Z,86.20
2018-03-28T15:42:57.305Z,86.20
2018-03-28T15:45:24.857Z,87.70
2018-03-28T15:47:52.404Z,88.20
2018-03-28T15:50:19.944Z,86.90
2018-03-28T15:52:48.250Z,89.80
2018-03-28T15:55:15.779Z,89.80
2018-03-28T15:57:44.089Z,90.80
2018-03-28T16:00:11.604Z,90.80
2018-03-28T16:02:39.156Z,92.00
2018-03-28T16:05:06.692Z,92.80
2018-03-28T16:07:34.241Z,92.90
2018-03-28T16:10:01.772Z,93.50
2018-03-28T16:12:29.330Z,93.70
2018-03-28T16:14:56.879Z,93.60
2018-03-28T16:17:24.427Z,93.50
2018-03-28T16:19:52.718Z,94.40
2018-03-28T16:22:20.243Z,94.40
2018-03-28T16:24:47.808Z,94.70
2018-03-28T16:27:15.320Z,95.00
2018-03-28T16:29:42.862Z,95.30
2018-03-28T16:32:10.392Z,95.10
2018-03-28T16:34:40.471Z,95.20
2018-03-28T16:37:08.005Z,95.20
2018-03-28T16:39:35.563Z,95.50
2018-03-28T16:42:03.100Z,95.60
2018-03-28T16:44:30.636Z,95.50
2018-03-28T16:46:58.666Z,95.60
2018-03-28T16:49:26.198Z,95.50
2018-03-28T16:51:53.741Z,95.30
2018-03-28T16:54:22.018Z,95.70
2018-03-28T16:56:50.349Z,95.70
2018-03-28T16:59:18.644Z,95.60
2018-03-28T17:01:46.187Z,95.60
2018-03-28T17:04:13.704Z,95.90
2018-03-28T17:06:41.209Z,96.00
2018-03-28T17:09:08.752Z,96.10
2018-03-28T17:11:36.312Z,96.30
2018-03-28T17:14:03.891Z,96.20
2018-03-28T17:16:31.413Z,96.30
2018-03-28T17:18:58.962Z,96.20
2018-03-28T17:21:26.497Z,96.10
2018-03-28T17:23:54.812Z,96.20
2018-03-28T17:26:23.113Z,96.10
2018-03-28T17:28:50.638Z,96.20
2018-03-28T17:31:18.181Z,96.20
2018-03-28T17:33:46.467Z,95.80
2018-03-28T17:36:14.060Z,95.80
2018-03-28T17:38:41.564Z,95.90
2018-03-28T17:41:09.894Z,95.40
2018-03-28T17:43:37.434Z,95.40
2018-03-28T17:46:04.976Z,95.50
2018-03-28T17:48:33.279Z,96.00
2018-03-28T17:51:00.838Z,96.00
2018-03-28T17:53:28.401Z,96.40
2018-03-28T17:55:55.942Z,96.40
2018-03-28T17:58:23.492Z,96.60
2018-03-28T18:00:51.031Z,96.90
2018-03-28T18:03:19.342Z,97.40
2018-03-28T18:05:46.872Z,97.40
2018-03-28T18:08:15.196Z,97.60
2018-03-28T18:10:42.721Z,97.50
2018-03-28T18:13:10.287Z,97.60
2018-03-28T18:15:38.634Z,97.70
2018-03-28T18:18:06.223Z,97.70
2018-03-28T18:20:33.763Z,97.70
2018-03-28T18:23:02.080Z,97.90
2018-03-28T18:25:29.636Z,97.90
2018-03-28T18:27:57.187Z,98.00
2018-03-28T18:30:24.738Z,98.10
2018-03-28T18:32:52.418Z,98.00
2018-03-28T18:35:19.970Z,98.00
2018-03-28T18:37:47.522Z,97.80
2018-03-28T18:40:15.091Z,97.80
2018-03-28T18:42:42.627Z,97.70
2018-03-28T18:45:10.910Z,97.90
2018-03-28T18:47:38.477Z,97.90
2018-03-28T18:50:06.034Z,98.00
2018-03-28T18:52:33.592Z,98.20
2018-03-28T18:55:01.125Z,98.40
2018-03-28T18:57:29.436Z,98.20
2018-03-28T18:59:56.983Z,98.20
2018-03-28T19:02:24.513Z,98.10
2018-03-28T19:04:52.053Z,98.00
2018-03-28T19:07:19.594Z,98.30
2018-03-28T19:09:47.160Z,98.00
2018-03-28T19:12:14.715Z,98.00
2018-03-28T19:14:42.286Z,98.00
2018-03-28T19:17:09.815Z,98.20
2018-03-28T19:19:37.340Z,98.20
2018-03-28T19:22:05.664Z,98.40
2018-03-28T19:24:33.207Z,98.40
2018-03-28T19:27:00.766Z,98.60
2018-03-28T19:29:28.309Z,98.60
2018-03-28T19:31:55.858Z,98.40
2018-03-28T19:34:24.158Z,98.10
2018-03-28T19:36:51.723Z,98.20
2018-03-28T19:39:19.266Z,97.70
2018-03-28T19:41:46.810Z,97.50
2018-03-28T19:44:15.138Z,97.50
2018-03-28T19:46:42.678Z,97.20
2018-03-28T19:49:10.225Z,97.10
2018-03-28T19:51:37.763Z,97.60
2018-03-28T19:54:06.091Z,98.00
2018-03-28T19:56:34.010Z,98.00
2018-03-28T19:59:02.341Z,98.70
2018-03-28T20:01:29.891Z,98.60
2018-03-28T20:03:57.452Z,98.80
2018-03-28T20:06:24.992Z,98.70
2018-03-28T20:08:52.601Z,98.70
2018-03-28T20:11:20.173Z,98.60
2018-03-28T20:13:48.481Z,98.60
2018-03-28T20:16:16.023Z,98.60
2018-03-28T20:18:44.325Z,98.40
2018-03-28T20:21:12.653Z,98.40
2018-03-28T20:23:40.183Z,98.30
2018-03-28T20:26:07.733Z,98.20
2018-03-28T20:28:35.257Z,98.40
2018-03-28T20:31:03.547Z,98.30
2018-03-28T20:33:31.108Z,98.30
2018-03-28T20:35:58.633Z,98.20
2018-03-28T20:38:26.198Z,98.30
2018-03-28T20:40:53.726Z,98.30
2018-03-28T20:43:21.271Z,98.40
2018-03-28T20:45:48.812Z,98.50
2018-03-28T20:48:16.375Z,98.80
2018-03-28T20:50:43.912Z,98.70
2018-03-28T20:53:12.195Z,98.70
2018-03-28T20:55:39.741Z,98.70
2018-03-28T20:58:08.030Z,98.50
2018-03-28T21:00:35.580Z,98.50
2018-03-28T21:03:03.131Z,98.40
2018-03-28T21:05:31.444Z,98.60
2018-03-28T21:07:58.982Z,98.60
2018-03-28T21:10:26.535Z,99.00
2018-03-28T21:12:54.849Z,98.60
2018-03-28T21:15:22.400Z,98.60
2018-03-28T21:17:50.726Z,98.40
2018-03-28T21:20:18.267Z,98.40
2018-03-28T21:22:45.834Z,98.50
2018-03-28T21:25:13.379Z,98.70
2018-03-28T21:27:40.938Z,98.70
2018-03-28T21:30:08.481Z,98.60
2018-03-28T21:32:36.022Z,98.40
2018-03-28T21:35:03.558Z,98.20
2018-03-28T21:37:31.870Z,97.70
2018-03-28T21:39:59.392Z,97.70
2018-03-28T21:42:27.707Z,97.10
2018-03-28T21:44:55.255Z,97.10
2018-03-28T21:47:22.792Z,96.60
2018-03-28T21:49:51.128Z,96.10
2018-03-28T21:52:18.673Z,96.10
2018-03-28T21:54:46.237Z,95.50
2018-03-28T21:57:13.779Z,95.40
2018-03-28T21:59:42.100Z,94.90
2018-03-28T22:02:09.613Z,94.90
2018-03-28T22:04:37.140Z,94.70
2018-03-28T22:07:05.455Z,94.60
2018-03-28T22:09:32.999Z,94.60
2018-03-28T22:12:00.556Z,94.50
2018-03-28T22:14:28.105Z,94.50
2018-03-28T22:16:55.616Z,94.40
2018-03-28T22:19:23.180Z,94.30
2018-03-28T22:21:50.802Z,94.20
2018-03-28T22:24:18.348Z,94.10
2018-03-28T22:26:45.938Z,93.80
2018-03-28T22:29:13.480Z,93.20
2018-03-28T22:31:41.020Z,93.40
2018-03-28T22:34:08.563Z,93.20
2018-03-28T22:36:36.841Z,92.70
2018-03-28T22:39:05.154Z,92.80
2018-03-28T22:41:32.693Z,92.80
2018-03-28T22:44:00.241Z,92.60
2018-03-28T22:46:28.549Z,92.50
2018-03-28T22:48:56.068Z,92.50
2018-03-28T22:51:24.397Z,92.80
2018-03-28T22:53:51.910Z,92.80
2018-03-28T22:56:20.217Z,92.30
2018-03-28T22:58:47.752Z,92.30
2018-03-28T23:01:16.052Z,92.30
2018-03-28T23:03:44.336Z,92.20
2018-03-28T23:06:12.035Z,92.20
2018-03-28T23:08:39.549Z,92.00
2018-03-28T23:11:07.090Z,91.40
2018-03-28T23:13:35.374Z,91.50
2018-03-28T23:16:02.895Z,91.50
2018-03-28T23:18:30.429Z,91.50
2018-03-28T23:20:57.949Z,91.40
2018-03-28T23:23:25.500Z,91.00
2018-03-28T23:25:53.801Z,91.10
2018-03-28T23:28:21.348Z,91.10
2018-03-28T23:30:48.877Z,90.90
2018-03-28T23:33:16.435Z,91.00
2018-03-28T23:35:44.743Z,90.60
2018-03-28T23:38:12.262Z,90.60
2018-03-28T23:40:39.820Z,90.70
2018-03-28T23:43:07.348Z,90.80
2018-03-28T23:45:34.904Z,90.80
2018-03-28T23:48:02.426Z,90.70
2018-03-28T23:50:29.988Z,90.30
2018-03-28T23:52:58.272Z,90.40
2018-03-28T23:55:25.822Z,90.40
2018-03-28T23:57:53.356Z,90.00
